sensor_id;sensor_type;location;lat;lon;timestamp;P1;durP1;ratioP1;P2;durP2;ratioP2
23747;SDS011;12054;53.662;10.126;2023-03-01T00:01:59;14.70;;;9.13;;
23747;SDS011;12054;53.662;10.126;2023-03-01T00:04:25;13.82;;;8.40;;
23747;SDS011;12054;53.662;10.126;2023-03-01T00:06:50;13.00;;;8.40;;
23747;SDS011;12054;53.662;10.126;2023-03-01T00:09:16;15.90;;;9.10;;
23747;SDS011;12054;53.662;10.126;2023-03-01T00:11:42;16.83;;;9.13;;
23747;SDS011;12054;53.662;10.126;2023-03-01T00:14:08;15.95;;;8.63;;
23747;SDS011;12054;53.662;10.126;2023-03-01T00:16:34;18.63;;;9.93;;
23747;SDS011;12054;53.662;10.126;2023-03-01T00:19:03;14.40;;;8.65;;
23747;SDS011;12054;53.662;10.126;2023-03-01T00:21:30;13.52;;;7.93;;
23747;SDS011;12054;53.662;10.126;2023-03-01T00:23:55;14.05;;;8.25;;
23747;SDS011;12054;53.662;10.126;2023-03-01T00:26:22;13.57;;;8.32;;
23747;SDS011;12054;53.662;10.126;2023-03-01T00:28:49;17.25;;;8.40;;
23747;SDS011;12054;53.662;10.126;2023-03-01T00:31:21;13.77;;;8.52;;
23747;SDS011;12054;53.662;10.126;2023-03-01T00:33:48;15.88;;;8.30;;
23747;SDS011;12054;53.662;10.126;2023-03-01T00:36:18;13.75;;;7.97;;
23747;SDS011;12054;53.662;10.126;2023-03-01T00:38:44;13.00;;;7.93;;
23747;SDS011;12054;53.662;10.126;2023-03-01T00:41:11;14.20;;;8.45;;
23747;SDS011;12054;53.662;10.126;2023-03-01T00:43:39;14.75;;;7.95;;
23747;SDS011;12054;53.662;10.126;2023-03-01T00:46:06;13.38;;;8.32;;
23747;SDS011;12054;53.662;10.126;2023-03-01T00:48:33;13.05;;;8.10;;
23747;SDS011;12054;53.662;10.126;2023-03-01T00:51:06;11.50;;;7.45;;
23747;SDS011;12054;53.662;10.126;2023-03-01T00:53:34;13.50;;;8.00;;
23747;SDS011;12054;53.662;10.126;2023-03-01T00:56:00;12.00;;;7.72;;
23747;SDS011;12054;53.662;10.126;2023-03-01T00:58:26;11.40;;;7.65;;
23747;SDS011;12054;53.662;10.126;2023-03-01T01:00:51;11.75;;;7.78;;
23747;SDS011;12054;53.662;10.126;2023-03-01T01:03:20;11.52;;;7.70;;
23747;SDS011;12054;53.662;10.126;2023-03-01T01:05:46;11.18;;;7.60;;
23747;SDS011;12054;53.662;10.126;2023-03-01T01:08:11;13.43;;;7.70;;
23747;SDS011;12054;53.662;10.126;2023-03-01T01:10:37;13.13;;;7.82;;
23747;SDS011;12054;53.662;10.126;2023-03-01T01:13:03;13.55;;;7.93;;
23747;SDS011;12054;53.662;10.126;2023-03-01T01:15:29;17.02;;;7.85;;
23747;SDS011;12054;53.662;10.126;2023-03-01T01:17:58;11.73;;;7.53;;
23747;SDS011;12054;53.662;10.126;2023-03-01T01:20:23;14.15;;;8.60;;
23747;SDS011;12054;53.662;10.126;2023-03-01T01:22:49;14.27;;;7.82;;
23747;SDS011;12054;53.662;10.126;2023-03-01T01:25:16;15.00;;;8.23;;
23747;SDS011;12054;53.662;10.126;2023-03-01T01:27:41;10.43;;;7.05;;
23747;SDS011;12054;53.662;10.126;2023-03-01T01:30:07;10.93;;;7.28;;
23747;SDS011;12054;53.662;10.126;2023-03-01T01:32:33;13.32;;;8.02;;
23747;SDS011;12054;53.662;10.126;2023-03-01T01:34:58;11.73;;;7.38;;
23747;SDS011;12054;53.662;10.126;2023-03-01T01:37:24;13.75;;;7.60;;
23747;SDS011;12054;53.662;10.126;2023-03-01T01:39:56;12.73;;;7.82;;
23747;SDS011;12054;53.662;10.126;2023-03-01T01:42:23;13.18;;;8.82;;
23747;SDS011;12054;53.662;10.126;2023-03-01T01:45:15;11.05;;;7.68;;
23747;SDS011;12054;53.662;10.126;2023-03-01T01:47:52;15.10;;;8.20;;
23747;SDS011;12054;53.662;10.126;2023-03-01T01:50:20;11.85;;;8.07;;
23747;SDS011;12054;53.662;10.126;2023-03-01T01:52:46;13.70;;;8.27;;
23747;SDS011;12054;53.662;10.126;2023-03-01T01:55:16;14.85;;;8.18;;
23747;SDS011;12054;53.662;10.126;2023-03-01T01:57:47;13.25;;;7.38;;
23747;SDS011;12054;53.662;10.126;2023-03-01T02:00:16;13.55;;;8.07;;
23747;SDS011;12054;53.662;10.126;2023-03-01T02:02:46;12.75;;;7.43;;
23747;SDS011;12054;53.662;10.126;2023-03-01T02:05:21;13.07;;;8.15;;
23747;SDS011;12054;53.662;10.126;2023-03-01T02:07:53;12.45;;;7.82;;
23747;SDS011;12054;53.662;10.126;2023-03-01T02:10:20;13.32;;;7.78;;
23747;SDS011;12054;53.662;10.126;2023-03-01T02:12:47;10.23;;;7.43;;
23747;SDS011;12054;53.662;10.126;2023-03-01T02:15:13;13.73;;;7.38;;
23747;SDS011;12054;53.662;10.126;2023-03-01T02:17:38;12.00;;;7.20;;
23747;SDS011;12054;53.662;10.126;2023-03-01T02:22:47;13.77;;;7.32;;
23747;SDS011;12054;53.662;10.126;2023-03-01T02:27:54;11.93;;;7.30;;
23747;SDS011;12054;53.662;10.126;2023-03-01T02:30:40;10.30;;;6.90;;
23747;SDS011;12054;53.662;10.126;2023-03-01T02:33:27;11.98;;;7.75;;
23747;SDS011;12054;53.662;10.126;2023-03-01T02:35:53;13.73;;;8.50;;
23747;SDS011;12054;53.662;10.126;2023-03-01T02:38:20;14.07;;;7.97;;
23747;SDS011;12054;53.662;10.126;2023-03-01T02:40:46;13.60;;;8.18;;
23747;SDS011;12054;53.662;10.126;2023-03-01T02:43:14;14.60;;;8.55;;
23747;SDS011;12054;53.662;10.126;2023-03-01T02:45:51;14.80;;;8.45;;
23747;SDS011;12054;53.662;10.126;2023-03-01T02:48:18;18.05;;;8.70;;
23747;SDS011;12054;53.662;10.126;2023-03-01T02:56:21;13.55;;;8.25;;
23747;SDS011;12054;53.662;10.126;2023-03-01T02:58:46;16.23;;;9.07;;
23747;SDS011;12054;53.662;10.126;2023-03-01T03:01:16;19.20;;;9.43;;
23747;SDS011;12054;53.662;10.126;2023-03-01T03:03:43;15.32;;;9.07;;
23747;SDS011;12054;53.662;10.126;2023-03-01T03:06:08;16.58;;;8.95;;
23747;SDS011;12054;53.662;10.126;2023-03-01T03:08:34;14.00;;;8.88;;
23747;SDS011;12054;53.662;10.126;2023-03-01T03:10:59;18.63;;;8.45;;
23747;SDS011;12054;53.662;10.126;2023-03-01T03:13:25;13.45;;;7.32;;
23747;SDS011;12054;53.662;10.126;2023-03-01T03:15:54;12.55;;;7.70;;
23747;SDS011;12054;53.662;10.126;2023-03-01T03:18:20;15.77;;;9.18;;
23747;SDS011;12054;53.662;10.126;2023-03-01T03:20:47;12.52;;;8.43;;
23747;SDS011;12054;53.662;10.126;2023-03-01T03:23:17;15.98;;;8.85;;
23747;SDS011;12054;53.662;10.126;2023-03-01T03:25:43;13.13;;;8.43;;
23747;SDS011;12054;53.662;10.126;2023-03-01T03:28:08;13.15;;;8.50;;
23747;SDS011;12054;53.662;10.126;2023-03-01T03:30:34;15.25;;;8.32;;
23747;SDS011;12054;53.662;10.126;2023-03-01T03:33:01;12.93;;;8.27;;
23747;SDS011;12054;53.662;10.126;2023-03-01T03:35:31;15.60;;;8.27;;
23747;SDS011;12054;53.662;10.126;2023-03-01T03:37:59;12.27;;;7.57;;
23747;SDS011;12054;53.662;10.126;2023-03-01T03:40:33;13.35;;;7.90;;
23747;SDS011;12054;53.662;10.126;2023-03-01T03:43:07;14.82;;;8.45;;
23747;SDS011;12054;53.662;10.126;2023-03-01T03:45:39;13.98;;;8.07;;
23747;SDS011;12054;53.662;10.126;2023-03-01T03:48:05;14.75;;;8.35;;
23747;SDS011;12054;53.662;10.126;2023-03-01T03:50:32;14.15;;;8.57;;
23747;SDS011;12054;53.662;10.126;2023-03-01T03:53:02;13.27;;;7.80;;
23747;SDS011;12054;53.662;10.126;2023-03-01T03:55:29;13.23;;;8.15;;
23747;SDS011;12054;53.662;10.126;2023-03-01T03:57:57;15.30;;;8.00;;
23747;SDS011;12054;53.662;10.126;2023-03-01T04:00:26;13.38;;;7.78;;
23747;SDS011;12054;53.662;10.126;2023-03-01T04:02:52;12.85;;;7.68;;
23747;SDS011;12054;53.662;10.126;2023-03-01T04:05:21;11.93;;;7.60;;
23747;SDS011;12054;53.662;10.126;2023-03-01T04:07:47;13.02;;;8.05;;
23747;SDS011;12054;53.662;10.126;2023-03-01T04:10:17;14.25;;;8.18;;
23747;SDS011;12054;53.662;10.126;2023-03-01T04:12:43;16.80;;;7.78;;
23747;SDS011;12054;53.662;10.126;2023-03-01T04:15:09;12.75;;;7.65;;
23747;SDS011;12054;53.662;10.126;2023-03-01T04:17:43;14.02;;;8.68;;
23747;SDS011;12054;53.662;10.126;2023-03-01T04:20:11;13.38;;;8.25;;
23747;SDS011;12054;53.662;10.126;2023-03-01T04:22:38;14.27;;;7.88;;
23747;SDS011;12054;53.662;10.126;2023-03-01T04:25:05;15.20;;;8.60;;
23747;SDS011;12054;53.662;10.126;2023-03-01T04:27:31;12.45;;;8.07;;
23747;SDS011;12054;53.662;10.126;2023-03-01T04:29:58;12.75;;;8.15;;
23747;SDS011;12054;53.662;10.126;2023-03-01T04:32:24;13.50;;;8.23;;
23747;SDS011;12054;53.662;10.126;2023-03-01T04:34:49;12.05;;;8.23;;
23747;SDS011;12054;53.662;10.126;2023-03-01T04:37:14;15.02;;;8.23;;
23747;SDS011;12054;53.662;10.126;2023-03-01T04:39:40;9.90;;;7.43;;
23747;SDS011;12054;53.662;10.126;2023-03-01T04:42:10;16.25;;;8.50;;
23747;SDS011;12054;53.662;10.126;2023-03-01T04:44:36;12.10;;;8.15;;
23747;SDS011;12054;53.662;10.126;2023-03-01T04:47:02;12.38;;;7.95;;
23747;SDS011;12054;53.662;10.126;2023-03-01T04:49:28;14.25;;;8.35;;
23747;SDS011;12054;53.662;10.126;2023-03-01T04:51:53;14.80;;;8.50;;
23747;SDS011;12054;53.662;10.126;2023-03-01T04:54:19;13.75;;;8.38;;
23747;SDS011;12054;53.662;10.126;2023-03-01T04:56:44;16.85;;;8.68;;
23747;SDS011;12054;53.662;10.126;2023-03-01T04:59:10;16.60;;;8.82;;
23747;SDS011;12054;53.662;10.126;2023-03-01T05:01:37;13.82;;;8.18;;
23747;SDS011;12054;53.662;10.126;2023-03-01T05:04:03;15.57;;;8.57;;
23747;SDS011;12054;53.662;10.126;2023-03-01T05:06:30;14.05;;;8.45;;
23747;SDS011;12054;53.662;10.126;2023-03-01T05:08:56;17.23;;;9.32;;
23747;SDS011;12054;53.662;10.126;2023-03-01T05:11:21;16.35;;;9.07;;
23747;SDS011;12054;53.662;10.126;2023-03-01T05:13:47;15.13;;;8.68;;
23747;SDS011;12054;53.662;10.126;2023-03-01T05:16:14;13.40;;;9.05;;
23747;SDS011;12054;53.662;10.126;2023-03-01T05:18:41;15.73;;;9.40;;
23747;SDS011;12054;53.662;10.126;2023-03-01T05:21:09;15.30;;;8.43;;
23747;SDS011;12054;53.662;10.126;2023-03-01T05:23:36;14.38;;;8.73;;
23747;SDS011;12054;53.662;10.126;2023-03-01T05:26:02;13.32;;;8.77;;
23747;SDS011;12054;53.662;10.126;2023-03-01T05:28:29;14.65;;;8.55;;
23747;SDS011;12054;53.662;10.126;2023-03-01T05:30:55;14.60;;;8.80;;
23747;SDS011;12054;53.662;10.126;2023-03-01T05:33:22;14.63;;;8.45;;
23747;SDS011;12054;53.662;10.126;2023-03-01T05:35:49;17.10;;;8.45;;
23747;SDS011;12054;53.662;10.126;2023-03-01T05:38:15;16.20;;;8.60;;
23747;SDS011;12054;53.662;10.126;2023-03-01T05:40:41;15.50;;;8.75;;
23747;SDS011;12054;53.662;10.126;2023-03-01T05:43:08;14.30;;;8.88;;
23747;SDS011;12054;53.662;10.126;2023-03-01T05:45:35;14.10;;;8.98;;
23747;SDS011;12054;53.662;10.126;2023-03-01T05:48:02;13.98;;;9.45;;
23747;SDS011;12054;53.662;10.126;2023-03-01T05:50:31;11.02;;;7.97;;
23747;SDS011;12054;53.662;10.126;2023-03-01T05:53:00;12.75;;;8.07;;
23747;SDS011;12054;53.662;10.126;2023-03-01T05:55:27;13.55;;;8.45;;
23747;SDS011;12054;53.662;10.126;2023-03-01T05:57:54;13.35;;;8.02;;
23747;SDS011;12054;53.662;10.126;2023-03-01T06:00:20;15.15;;;8.52;;
23747;SDS011;12054;53.662;10.126;2023-03-01T06:02:48;15.50;;;8.55;;
23747;SDS011;12054;53.662;10.126;2023-03-01T06:05:16;13.10;;;8.18;;
23747;SDS011;12054;53.662;10.126;2023-03-01T06:07:42;12.82;;;7.95;;
23747;SDS011;12054;53.662;10.126;2023-03-01T06:10:08;12.77;;;8.15;;
23747;SDS011;12054;53.662;10.126;2023-03-01T06:12:36;14.82;;;8.77;;
23747;SDS011;12054;53.662;10.126;2023-03-01T06:15:03;12.68;;;8.05;;
23747;SDS011;12054;53.662;10.126;2023-03-01T06:17:30;15.40;;;9.43;;
23747;SDS011;12054;53.662;10.126;2023-03-01T06:19:56;17.67;;;8.43;;
23747;SDS011;12054;53.662;10.126;2023-03-01T06:22:22;15.32;;;8.95;;
23747;SDS011;12054;53.662;10.126;2023-03-01T06:24:47;17.38;;;8.95;;
23747;SDS011;12054;53.662;10.126;2023-03-01T06:27:13;14.75;;;9.10;;
23747;SDS011;12054;53.662;10.126;2023-03-01T06:29:38;16.20;;;8.75;;
23747;SDS011;12054;53.662;10.126;2023-03-01T06:32:04;12.75;;;8.45;;
23747;SDS011;12054;53.662;10.126;2023-03-01T06:34:30;14.48;;;9.63;;
23747;SDS011;12054;53.662;10.126;2023-03-01T06:36:57;18.17;;;9.63;;
23747;SDS011;12054;53.662;10.126;2023-03-01T06:39:22;14.25;;;8.02;;
23747;SDS011;12054;53.662;10.126;2023-03-01T06:41:47;17.02;;;9.38;;
23747;SDS011;12054;53.662;10.126;2023-03-01T06:44:13;15.07;;;8.90;;
23747;SDS011;12054;53.662;10.126;2023-03-01T06:46:39;17.73;;;9.15;;
23747;SDS011;12054;53.662;10.126;2023-03-01T06:49:05;16.70;;;9.18;;
23747;SDS011;12054;53.662;10.126;2023-03-01T06:51:34;14.13;;;8.45;;
23747;SDS011;12054;53.662;10.126;2023-03-01T06:54:03;14.88;;;8.27;;
23747;SDS011;12054;53.662;10.126;2023-03-01T06:56:29;16.75;;;8.55;;
23747;SDS011;12054;53.662;10.126;2023-03-01T06:58:55;13.27;;;8.68;;
23747;SDS011;12054;53.662;10.126;2023-03-01T07:01:21;13.80;;;8.63;;
23747;SDS011;12054;53.662;10.126;2023-03-01T07:03:46;14.40;;;8.88;;
23747;SDS011;12054;53.662;10.126;2023-03-01T07:06:12;14.52;;;8.63;;
23747;SDS011;12054;53.662;10.126;2023-03-01T07:08:37;15.38;;;9.10;;
23747;SDS011;12054;53.662;10.126;2023-03-01T07:11:03;19.02;;;9.70;;
23747;SDS011;12054;53.662;10.126;2023-03-01T07:13:29;14.80;;;8.82;;
23747;SDS011;12054;53.662;10.126;2023-03-01T07:15:54;16.05;;;8.73;;
23747;SDS011;12054;53.662;10.126;2023-03-01T07:18:20;16.92;;;9.20;;
23747;SDS011;12054;53.662;10.126;2023-03-01T07:20:46;14.15;;;8.27;;
23747;SDS011;12054;53.662;10.126;2023-03-01T07:23:11;16.45;;;8.85;;
23747;SDS011;12054;53.662;10.126;2023-03-01T07:25:37;15.80;;;9.07;;
23747;SDS011;12054;53.662;10.126;2023-03-01T07:28:02;17.95;;;9.55;;
23747;SDS011;12054;53.662;10.126;2023-03-01T07:30:28;14.70;;;9.13;;
23747;SDS011;12054;53.662;10.126;2023-03-01T07:32:56;14.90;;;9.15;;
23747;SDS011;12054;53.662;10.126;2023-03-01T07:35:24;21.42;;;10.23;;
23747;SDS011;12054;53.662;10.126;2023-03-01T07:37:51;15.65;;;9.98;;
23747;SDS011;12054;53.662;10.126;2023-03-01T07:40:17;17.60;;;9.90;;
23747;SDS011;12054;53.662;10.126;2023-03-01T07:42:42;18.15;;;10.00;;
23747;SDS011;12054;53.662;10.126;2023-03-01T07:45:08;15.70;;;10.23;;
23747;SDS011;12054;53.662;10.126;2023-03-01T07:47:34;20.75;;;11.52;;
23747;SDS011;12054;53.662;10.126;2023-03-01T07:49:59;16.55;;;10.60;;
23747;SDS011;12054;53.662;10.126;2023-03-01T07:52:26;20.35;;;10.30;;
23747;SDS011;12054;53.662;10.126;2023-03-01T07:54:52;18.98;;;11.32;;
23747;SDS011;12054;53.662;10.126;2023-03-01T07:57:17;18.42;;;11.63;;
23747;SDS011;12054;53.662;10.126;2023-03-01T07:59:43;19.80;;;11.98;;
23747;SDS011;12054;53.662;10.126;2023-03-01T08:02:09;18.50;;;11.25;;
23747;SDS011;12054;53.662;10.126;2023-03-01T08:04:35;20.83;;;13.25;;
23747;SDS011;12054;53.662;10.126;2023-03-01T08:07:01;23.05;;;12.70;;
23747;SDS011;12054;53.662;10.126;2023-03-01T08:09:29;20.88;;;12.23;;
23747;SDS011;12054;53.662;10.126;2023-03-01T08:11:56;21.90;;;12.60;;
23747;SDS011;12054;53.662;10.126;2023-03-01T08:14:24;21.52;;;13.32;;
23747;SDS011;12054;53.662;10.126;2023-03-01T08:16:50;23.20;;;13.85;;
23747;SDS011;12054;53.662;10.126;2023-03-01T08:19:15;23.35;;;13.25;;
23747;SDS011;12054;53.662;10.126;2023-03-01T08:21:41;20.48;;;13.38;;
23747;SDS011;12054;53.662;10.126;2023-03-01T08:24:06;24.48;;;13.88;;
23747;SDS011;12054;53.662;10.126;2023-03-01T08:26:33;20.92;;;12.98;;
23747;SDS011;12054;53.662;10.126;2023-03-01T08:28:59;23.65;;;12.73;;
23747;SDS011;12054;53.662;10.126;2023-03-01T08:31:36;22.00;;;12.55;;
23747;SDS011;12054;53.662;10.126;2023-03-01T08:34:05;19.77;;;12.88;;
23747;SDS011;12054;53.662;10.126;2023-03-01T08:36:37;20.65;;;12.85;;
23747;SDS011;12054;53.662;10.126;2023-03-01T08:39:08;22.35;;;12.88;;
23747;SDS011;12054;53.662;10.126;2023-03-01T08:41:34;21.02;;;13.40;;
23747;SDS011;12054;53.662;10.126;2023-03-01T08:44:00;20.00;;;12.60;;
23747;SDS011;12054;53.662;10.126;2023-03-01T08:46:26;26.02;;;13.48;;
23747;SDS011;12054;53.662;10.126;2023-03-01T08:49:03;20.40;;;12.52;;
23747;SDS011;12054;53.662;10.126;2023-03-01T08:51:29;19.80;;;12.20;;
23747;SDS011;12054;53.662;10.126;2023-03-01T08:53:56;21.13;;;13.23;;
23747;SDS011;12054;53.662;10.126;2023-03-01T08:56:22;20.92;;;12.77;;
23747;SDS011;12054;53.662;10.126;2023-03-01T08:58:48;23.33;;;12.98;;
23747;SDS011;12054;53.662;10.126;2023-03-01T09:01:14;19.10;;;13.15;;
23747;SDS011;12054;53.662;10.126;2023-03-01T09:03:41;20.27;;;12.57;;
23747;SDS011;12054;53.662;10.126;2023-03-01T09:06:07;20.80;;;13.00;;
23747;SDS011;12054;53.662;10.126;2023-03-01T09:08:41;21.15;;;13.25;;
23747;SDS011;12054;53.662;10.126;2023-03-01T09:11:09;20.05;;;13.15;;
23747;SDS011;12054;53.662;10.126;2023-03-01T09:13:37;19.75;;;13.02;;
23747;SDS011;12054;53.662;10.126;2023-03-01T09:16:04;21.42;;;12.88;;
23747;SDS011;12054;53.662;10.126;2023-03-01T09:18:31;20.10;;;12.55;;
23747;SDS011;12054;53.662;10.126;2023-03-01T09:21:04;24.20;;;14.73;;
23747;SDS011;12054;53.662;10.126;2023-03-01T09:23:34;21.55;;;13.55;;
23747;SDS011;12054;53.662;10.126;2023-03-01T09:26:17;18.23;;;12.50;;
23747;SDS011;12054;53.662;10.126;2023-03-01T09:28:45;19.45;;;13.13;;
23747;SDS011;12054;53.662;10.126;2023-03-01T09:31:11;23.27;;;13.88;;
23747;SDS011;12054;53.662;10.126;2023-03-01T09:33:38;21.40;;;13.05;;
23747;SDS011;12054;53.662;10.126;2023-03-01T09:36:06;21.80;;;13.10;;
23747;SDS011;12054;53.662;10.126;2023-03-01T09:38:35;20.83;;;13.40;;
23747;SDS011;12054;53.662;10.126;2023-03-01T09:41:01;20.80;;;12.60;;
23747;SDS011;12054;53.662;10.126;2023-03-01T09:43:32;23.02;;;13.30;;
23747;SDS011;12054;53.662;10.126;2023-03-01T09:46:10;21.60;;;12.20;;
23747;SDS011;12054;53.662;10.126;2023-03-01T09:49:01;21.98;;;12.45;;
23747;SDS011;12054;53.662;10.126;2023-03-01T09:51:34;19.35;;;11.63;;
23747;SDS011;12054;53.662;10.126;2023-03-01T09:54:04;16.98;;;11.27;;
23747;SDS011;12054;53.662;10.126;2023-03-01T09:59:11;18.02;;;10.70;;
23747;SDS011;12054;53.662;10.126;2023-03-01T10:04:48;16.67;;;9.98;;
23747;SDS011;12054;53.662;10.126;2023-03-01T10:10:04;17.08;;;9.55;;
23747;SDS011;12054;53.662;10.126;2023-03-01T10:12:36;15.25;;;9.63;;
23747;SDS011;12054;53.662;10.126;2023-03-01T10:15:12;15.38;;;9.85;;
23747;SDS011;12054;53.662;10.126;2023-03-01T10:17:44;15.90;;;9.30;;
23747;SDS011;12054;53.662;10.126;2023-03-01T10:20:22;16.73;;;9.57;;
23747;SDS011;12054;53.662;10.126;2023-03-01T10:22:50;16.70;;;10.05;;
23747;SDS011;12054;53.662;10.126;2023-03-01T10:28:12;15.02;;;9.63;;
23747;SDS011;12054;53.662;10.126;2023-03-01T10:30:43;17.08;;;10.05;;
23747;SDS011;12054;53.662;10.126;2023-03-01T10:35:49;15.98;;;9.85;;
23747;SDS011;12054;53.662;10.126;2023-03-01T10:38:15;16.55;;;10.13;;
23747;SDS011;12054;53.662;10.126;2023-03-01T10:40:52;16.95;;;10.38;;
23747;SDS011;12054;53.662;10.126;2023-03-01T10:43:23;17.77;;;10.43;;
23747;SDS011;12054;53.662;10.126;2023-03-01T10:45:56;16.35;;;9.77;;
23747;SDS011;12054;53.662;10.126;2023-03-01T10:48:23;15.00;;;8.98;;
23747;SDS011;12054;53.662;10.126;2023-03-01T10:51:04;13.45;;;8.80;;
23747;SDS011;12054;53.662;10.126;2023-03-01T10:53:35;18.60;;;9.40;;
23747;SDS011;12054;53.662;10.126;2023-03-01T10:56:13;14.10;;;7.75;;
23747;SDS011;12054;53.662;10.126;2023-03-01T10:59:02;12.38;;;6.90;;
23747;SDS011;12054;53.662;10.126;2023-03-01T11:01:29;13.18;;;7.78;;
23747;SDS011;12054;53.662;10.126;2023-03-01T11:04:09;13.73;;;7.15;;
23747;SDS011;12054;53.662;10.126;2023-03-01T11:06:37;13.05;;;7.20;;
23747;SDS011;12054;53.662;10.126;2023-03-01T11:09:14;9.35;;;5.53;;
23747;SDS011;12054;53.662;10.126;2023-03-01T11:11:42;10.00;;;5.70;;
23747;SDS011;12054;53.662;10.126;2023-03-01T11:14:15;8.40;;;4.78;;
23747;SDS011;12054;53.662;10.126;2023-03-01T11:16:47;7.57;;;4.68;;
23747;SDS011;12054;53.662;10.126;2023-03-01T11:19:15;7.00;;;3.95;;
23747;SDS011;12054;53.662;10.126;2023-03-01T11:21:47;9.70;;;5.13;;
23747;SDS011;12054;53.662;10.126;2023-03-01T11:24:31;8.82;;;5.00;;
23747;SDS011;12054;53.662;10.126;2023-03-01T11:27:08;7.60;;;4.57;;
23747;SDS011;12054;53.662;10.126;2023-03-01T11:30:02;4.93;;;3.15;;
23747;SDS011;12054;53.662;10.126;2023-03-01T11:32:47;7.15;;;3.60;;
23747;SDS011;12054;53.662;10.126;2023-03-01T11:35:24;7.00;;;4.10;;
23747;SDS011;12054;53.662;10.126;2023-03-01T11:40:32;7.60;;;3.83;;
23747;SDS011;12054;53.662;10.126;2023-03-01T11:51:22;6.00;;;3.63;;
23747;SDS011;12054;53.662;10.126;2023-03-01T11:57:28;5.30;;;3.53;;
23747;SDS011;12054;53.662;10.126;2023-03-01T12:02:53;5.25;;;3.45;;
23747;SDS011;12054;53.662;10.126;2023-03-01T12:05:45;4.88;;;3.03;;
23747;SDS011;12054;53.662;10.126;2023-03-01T12:13:55;5.57;;;3.28;;
23747;SDS011;12054;53.662;10.126;2023-03-01T12:16:51;7.05;;;3.22;;
23747;SDS011;12054;53.662;10.126;2023-03-01T12:22:32;7.57;;;3.58;;
23747;SDS011;12054;53.662;10.126;2023-03-01T12:25:19;7.97;;;4.18;;
23747;SDS011;12054;53.662;10.126;2023-03-01T12:33:45;6.97;;;3.58;;
23747;SDS011;12054;53.662;10.126;2023-03-01T12:37:10;8.50;;;4.70;;
23747;SDS011;12054;53.662;10.126;2023-03-01T12:41:55;7.38;;;4.25;;
23747;SDS011;12054;53.662;10.126;2023-03-01T12:44:53;7.88;;;4.55;;
23747;SDS011;12054;53.662;10.126;2023-03-01T12:47:35;7.75;;;4.50;;
23747;SDS011;12054;53.662;10.126;2023-03-01T12:50:04;7.07;;;4.07;;
23747;SDS011;12054;53.662;10.126;2023-03-01T12:52:46;6.70;;;4.35;;
23747;SDS011;12054;53.662;10.126;2023-03-01T12:55:27;8.10;;;4.43;;
23747;SDS011;12054;53.662;10.126;2023-03-01T13:01:08;6.70;;;4.30;;
23747;SDS011;12054;53.662;10.126;2023-03-01T13:09:40;7.30;;;4.57;;
23747;SDS011;12054;53.662;10.126;2023-03-01T13:17:51;8.00;;;4.22;;
23747;SDS011;12054;53.662;10.126;2023-03-01T13:20:20;6.70;;;4.40;;
23747;SDS011;12054;53.662;10.126;2023-03-01T13:23:00;9.38;;;4.88;;
23747;SDS011;12054;53.662;10.126;2023-03-01T13:25:35;6.93;;;4.57;;
23747;SDS011;12054;53.662;10.126;2023-03-01T13:33:58;6.57;;;4.60;;
23747;SDS011;12054;53.662;10.126;2023-03-01T13:41:48;8.23;;;5.15;;
23747;SDS011;12054;53.662;10.126;2023-03-01T13:49:42;7.32;;;4.90;;
23747;SDS011;12054;53.662;10.126;2023-03-01T13:52:17;12.40;;;5.85;;
23747;SDS011;12054;53.662;10.126;2023-03-01T13:54:46;8.73;;;5.63;;
23747;SDS011;12054;53.662;10.126;2023-03-01T13:57:12;9.45;;;5.72;;
23747;SDS011;12054;53.662;10.126;2023-03-01T13:59:47;9.25;;;6.05;;
23747;SDS011;12054;53.662;10.126;2023-03-01T14:02:13;8.90;;;6.13;;
23747;SDS011;12054;53.662;10.126;2023-03-01T14:04:39;7.68;;;5.72;;
23747;SDS011;12054;53.662;10.126;2023-03-01T14:07:19;7.82;;;5.53;;
23747;SDS011;12054;53.662;10.126;2023-03-01T14:09:52;9.68;;;7.00;;
23747;SDS011;12054;53.662;10.126;2023-03-01T14:15:04;7.53;;;6.00;;
23747;SDS011;12054;53.662;10.126;2023-03-01T14:20:32;8.68;;;6.07;;
23747;SDS011;12054;53.662;10.126;2023-03-01T14:23:08;8.18;;;5.25;;
23747;SDS011;12054;53.662;10.126;2023-03-01T14:25:36;6.93;;;5.05;;
23747;SDS011;12054;53.662;10.126;2023-03-01T14:30:52;5.97;;;3.72;;
23747;SDS011;12054;53.662;10.126;2023-03-01T14:33:27;5.57;;;4.00;;
23747;SDS011;12054;53.662;10.126;2023-03-01T14:36:10;6.82;;;4.38;;
23747;SDS011;12054;53.662;10.126;2023-03-01T14:41:08;5.93;;;4.32;;
23747;SDS011;12054;53.662;10.126;2023-03-01T14:43:41;6.65;;;4.90;;
23747;SDS011;12054;53.662;10.126;2023-03-01T14:46:17;7.43;;;4.78;;
23747;SDS011;12054;53.662;10.126;2023-03-01T14:48:54;9.55;;;5.22;;
23747;SDS011;12054;53.662;10.126;2023-03-01T14:51:26;6.63;;;4.60;;
23747;SDS011;12054;53.662;10.126;2023-03-01T14:53:52;6.00;;;4.10;;
23747;SDS011;12054;53.662;10.126;2023-03-01T14:56:18;6.07;;;4.68;;
23747;SDS011;12054;53.662;10.126;2023-03-01T14:58:44;8.30;;;4.68;;
23747;SDS011;12054;53.662;10.126;2023-03-01T15:01:13;7.72;;;5.00;;
23747;SDS011;12054;53.662;10.126;2023-03-01T15:03:42;8.02;;;5.18;;
23747;SDS011;12054;53.662;10.126;2023-03-01T15:06:10;7.60;;;5.30;;
23747;SDS011;12054;53.662;10.126;2023-03-01T15:08:41;7.70;;;4.72;;
23747;SDS011;12054;53.662;10.126;2023-03-01T15:13:38;9.23;;;5.40;;
23747;SDS011;12054;53.662;10.126;2023-03-01T15:18:37;9.88;;;5.70;;
23747;SDS011;12054;53.662;10.126;2023-03-01T15:21:18;9.45;;;6.15;;
23747;SDS011;12054;53.662;10.126;2023-03-01T15:23:55;9.43;;;6.25;;
23747;SDS011;12054;53.662;10.126;2023-03-01T15:26:37;10.88;;;7.07;;
23747;SDS011;12054;53.662;10.126;2023-03-01T15:29:18;11.20;;;6.97;;
23747;SDS011;12054;53.662;10.126;2023-03-01T15:31:53;11.63;;;7.25;;
23747;SDS011;12054;53.662;10.126;2023-03-01T15:34:36;10.15;;;7.25;;
23747;SDS011;12054;53.662;10.126;2023-03-01T15:37:03;14.13;;;8.63;;
23747;SDS011;12054;53.662;10.126;2023-03-01T15:39:39;13.10;;;8.15;;
23747;SDS011;12054;53.662;10.126;2023-03-01T15:42:11;13.68;;;7.95;;
23747;SDS011;12054;53.662;10.126;2023-03-01T15:44:39;13.18;;;7.20;;
23747;SDS011;12054;53.662;10.126;2023-03-01T15:47:31;11.70;;;7.72;;
23747;SDS011;12054;53.662;10.126;2023-03-01T15:49:57;12.00;;;7.60;;
23747;SDS011;12054;53.662;10.126;2023-03-01T15:52:35;11.10;;;7.68;;
23747;SDS011;12054;53.662;10.126;2023-03-01T15:55:05;12.35;;;8.10;;
23747;SDS011;12054;53.662;10.126;2023-03-01T15:57:40;13.50;;;8.52;;
23747;SDS011;12054;53.662;10.126;2023-03-01T16:00:05;14.85;;;9.15;;
23747;SDS011;12054;53.662;10.126;2023-03-01T16:02:36;16.30;;;10.52;;
23747;SDS011;12054;53.662;10.126;2023-03-01T16:05:02;17.42;;;10.63;;
23747;SDS011;12054;53.662;10.126;2023-03-01T16:07:28;16.35;;;9.75;;
23747;SDS011;12054;53.662;10.126;2023-03-01T16:09:54;17.02;;;10.40;;
23747;SDS011;12054;53.662;10.126;2023-03-01T16:12:19;14.15;;;9.15;;
23747;SDS011;12054;53.662;10.126;2023-03-01T16:14:46;14.90;;;8.80;;
23747;SDS011;12054;53.662;10.126;2023-03-01T16:17:13;17.35;;;8.77;;
23747;SDS011;12054;53.662;10.126;2023-03-01T16:19:38;13.13;;;6.93;;
23747;SDS011;12054;53.662;10.126;2023-03-01T16:22:05;9.00;;;5.50;;